Flight Track Log - Related Links

Times and Time Zones

All times are in EDT time to prevent confusion due to time zone crossing. See the HAL45 flight status page for this flight to view local times or setup timezone preferences in your user account.

Time Position Orientation Groundspeed Altitude Reporting Facility
EDT Latitude Longitude Course Direction KTS MPH feet Rate Location/Type
Wed 11:09:22 AM 37.4167 -121.9833 264° West 202 232 2,500  Level Northern Cal TRACON
Wed 11:10:22 AM 37.4500 -122.0333 310° West 223 257 3,000 842 Climbing Northern Cal TRACON
Wed 11:11:00 AM 37.3738 -122.3624 263° West  Level FlightAware Approximate
Wed 11:11:16 AM 37.4000 -122.1333 238° Southwest 279 321 4,100  Level Northern Cal TRACON
Wed 11:12:00 AM 37.3546 -122.5119 259° West  Level FlightAware Approximate
Wed 11:12:16 AM 37.3589 -122.2025 233° Southwest 277 319 4,800  Level Oakland Center
Wed 11:13:00 AM 37.3324 -122.6607 264° West  Level FlightAware Approximate
Wed 11:13:17 AM 37.3425 -122.2969 258° West 278 320 6,200  Level Oakland Center
Wed 11:14:00 AM 37.3187 -122.8111 264° West  Level FlightAware Approximate
Wed 11:14:18 AM 37.3286 -122.4172 262° West 286 329 9,700  Level Oakland Center
Wed 11:15:20 AM 37.3161 -122.5269 262° West 309 356 11,000 1,902 Climbing Oakland Center
Wed 11:16:21 AM 37.3008 -122.6489 261° West 339 390 13,600 2,607 Climbing Oakland Center
Wed 11:17:22 AM 37.2844 -122.7742 261° West 357 411 16,300 2,557 Climbing Oakland Center
Wed 11:18:23 AM 37.2628 -122.9031 258° West 372 428 18,800 2,390 Climbing Oakland Center
Wed 11:19:25 AM 37.2383 -123.0328 257° West 381 438 21,200 2,244 Climbing Oakland Center
Wed 11:20:26 AM 37.2142 -123.1647 257° West 387 445 23,400 1,967 Climbing Oakland Center
Wed 11:21:27 AM 37.1903 -123.3008 258° West 398 458 25,200 1,721 Climbing Oakland Center
Wed 11:22:28 AM 37.1644 -123.4419 257° West 413 475 26,900 1,561 Climbing Oakland Center
Wed 11:23:30 AM 37.1372 -123.5839 257° West 419 482 28,400 1,415 Climbing Oakland Center
Wed 11:24:31 AM 37.1100 -123.7311 257° West 433 498 29,800 1,574 Climbing Oakland Center
Wed 11:25:32 AM 37.0761 -123.9114 257° West 443 510 31,600 1,721 Climbing Oakland Center
Wed 11:26:33 AM 37.0494 -124.0619 258° West 444 511 33,300 1,512 Climbing Oakland Center
Wed 11:27:35 AM 37.0197 -124.2097 256° West 438 504 34,700 1,171 Climbing Oakland Center
Wed 11:28:36 AM 36.9911 -124.3583 256° West 440 506 35,700 639 Climbing Oakland Center
Wed 11:29:37 AM 36.9622 -124.5058 256° West 438 504 36,000 146 Climbing Oakland Center
Wed 11:30:39 AM 36.9350 -124.6531 257° West 436 502 36,000  Level Oakland Center
Wed 11:31:40 AM 36.9053 -124.7983 256° West 433 498 36,000  Level Oakland Center
Wed 11:32:42 AM 36.8764 -124.9467 256° West 440 506 36,000  Level Oakland Center
Wed 11:33:43 AM 36.8481 -125.0917 256° West 435 501 36,000  Level Oakland Center
Wed 11:34:44 AM 36.8192 -125.2378 256° West 434 499 36,000  Level Oakland Center
Wed 11:35:46 AM 36.7853 -125.4142 257° West 435 501 36,000  Level Oakland Center
Wed 11:36:47 AM 36.7550 -125.5592 255° West 434 499 36,000  Level Oakland Center
Wed 11:37:49 AM 36.7253 -125.7047 256° West 434 499 36,000  Level Oakland Center
Wed 11:38:50 AM 36.6947 -125.8511 255° West 436 502 36,000  Level Oakland Center
Wed 11:39:51 AM 36.6650 -125.9958 256° West 435 501 36,000  Level Oakland Center
Wed 11:40:53 AM 36.6344 -126.1428 256° West 437 503 36,000  Level Oakland Center
Wed 11:41:54 AM 36.6039 -126.2886 255° West 437 503 36,000  Level Oakland Center
Wed 11:46:27 AM 36.4667 -126.9333 250° West 439 505 36,000  Level Oakland Oceanic (ODAPS)
Wed 11:47:00 AM 36.4230 -127.1230 255° West 434 499 36,000  Level ACARS Aircraft Datalink
Wed 11:52:11 AM 36.2167 -127.7500 250° West 442 509 36,000  Level Oakland Oceanic (ODAPS)
Wed 11:53:00 AM 36.1751 -127.9199 250° West 439 505 36,000  Level FlightAware Transoceanic
Wed 11:54:00 AM 36.1328 -128.0603 249° West 439 505 36,000  Level FlightAware Transoceanic
Wed 11:55:00 AM 36.0903 -128.2005 249° West 439 505 36,000  Level FlightAware Transoceanic
Wed 11:56:00 AM 36.0477 -128.3405 249° West 439 505 36,000  Level FlightAware Transoceanic
Wed 11:57:00 AM 36.0049 -128.4804 249° West 439 505 36,000  Level FlightAware Transoceanic
Wed 11:58:00 AM 35.9561 -128.6123 249° West 442 509 36,000  Level FlightAware Transoceanic
Wed 11:59:00 AM 35.9120 -128.7555 249° West 442 509 36,000  Level FlightAware Transoceanic
Wed 12:00:00 PM 35.8679 -128.8985 249° West 442 509 36,000  Level FlightAware Transoceanic
Wed 12:01:00 PM 35.8235 -129.0414 249° West 442 509 36,000  Level FlightAware Transoceanic
Wed 12:02:00 PM 35.7789 -129.1841 249° West 442 509 36,000  Level FlightAware Transoceanic
Wed 12:03:00 PM 35.7342 -129.3266 249° West 442 509 36,000  Level FlightAware Transoceanic
Wed 12:04:00 PM 35.6894 -129.4689 249° West 442 509 36,000  Level FlightAware Transoceanic
Wed 12:05:00 PM 35.6443 -129.6111 249° West 442 509 36,000  Level FlightAware Transoceanic
Wed 12:06:00 PM 35.5991 -129.7532 249° West 442 509 36,000  Level FlightAware Transoceanic
Wed 12:06:08 PM 35.6167 -129.7000 249° West 442 509 36,000  Level Oakland Oceanic (ODAPS)
Wed 12:07:00 PM 35.5537 -129.8951 248° West 442 509 36,000  Level FlightAware Transoceanic
Wed 12:08:00 PM 35.5082 -130.0368 248° West 442 509 36,000  Level FlightAware Transoceanic
Wed 12:09:00 PM 35.4625 -130.1784 248° West 442 509 36,000  Level FlightAware Transoceanic
Wed 12:10:00 PM 35.4166 -130.3198 248° West 442 509 36,000  Level FlightAware Transoceanic
Wed 12:11:00 PM 35.3706 -130.4610 248° West 442 509 36,000  Level FlightAware Transoceanic
Wed 12:12:00 PM 35.3473 -130.5337 248° West 442 509 36,000  Level FlightAware Transoceanic
Wed 12:13:00 PM 35.3019 -130.6721 248° West 442 509 36,000  Level FlightAware Transoceanic
Wed 12:14:00 PM 35.2562 -130.8104 248° West 442 509 36,000  Level FlightAware Transoceanic
Wed 12:15:00 PM 35.2105 -130.9485 248° West 442 509 36,000  Level FlightAware Transoceanic
Wed 12:16:00 PM 35.1646 -131.0864 248° West 442 509 36,000  Level FlightAware Transoceanic
Wed 12:17:00 PM 35.1185 -131.2242 248° West 442 509 36,000  Level FlightAware Transoceanic
Wed 12:18:00 PM 35.0723 -131.3618 248° West 442 509 36,000  Level FlightAware Transoceanic
Wed 12:19:00 PM 35.0259 -131.4993 248° West 442 509 36,000  Level FlightAware Transoceanic
Wed 12:19:59 PM 34.9833 -131.6167 248° West 440 506 36,000  Level Oakland Oceanic (ODAPS)
Wed 12:20:00 PM 34.9793 -131.6366 247° West 442 509 36,000  Level FlightAware Transoceanic
Wed 12:21:00 PM 34.9326 -131.7737 247° West 442 509 36,000  Level FlightAware Transoceanic
Wed 12:22:00 PM 34.8858 -131.9107 247° West 442 509 36,000  Level FlightAware Transoceanic
Wed 12:23:00 PM 34.8388 -132.0476 247° West 442 509 36,000  Level FlightAware Transoceanic
Wed 12:24:00 PM 34.7916 -132.1843 247° West 442 509 36,000  Level FlightAware Transoceanic
Wed 12:25:00 PM 34.7443 -132.3208 247° West 442 509 36,000  Level FlightAware Transoceanic
Wed 12:26:00 PM 34.6997 -132.4433 247° West 440 506 36,000  Level FlightAware Transoceanic
Wed 12:27:00 PM 34.6519 -132.5805 247° West 440 506 36,000  Level FlightAware Transoceanic
Wed 12:28:00 PM 34.6040 -132.7176 247° West 440 506 36,000  Level FlightAware Transoceanic
Wed 12:29:00 PM 34.5559 -132.8545 247° West 440 506 36,000  Level FlightAware Transoceanic
Wed 12:30:00 PM 34.5076 -132.9913 247° West 440 506 36,000  Level FlightAware Transoceanic
Wed 12:31:00 PM 34.4592 -133.1279 247° West 440 506 36,000  Level FlightAware Transoceanic
Wed 12:32:00 PM 34.4106 -133.2643 247° West 440 506 36,000  Level FlightAware Transoceanic
Wed 12:33:00 PM 34.3619 -133.4005 247° West 440 506 36,000  Level FlightAware Transoceanic
Wed 12:33:48 PM 34.3167 -133.5333 246° West 445 512 36,000  Level Oakland Oceanic (ODAPS)
Wed 12:34:00 PM 34.3130 -133.5367 246° West 440 506 36,000  Level FlightAware Transoceanic
Wed 12:35:00 PM 34.2640 -133.6726 246° West 440 506 36,000  Level FlightAware Transoceanic
Wed 12:36:00 PM 34.2148 -133.8084 246° West 440 506 36,000  Level FlightAware Transoceanic
Wed 12:37:00 PM 34.1655 -133.9440 246° West 440 506 36,000  Level FlightAware Transoceanic
Wed 12:38:00 PM 34.1161 -134.0795 246° West 440 506 36,000  Level FlightAware Transoceanic
Wed 12:39:00 PM 34.0670 -134.2143 246° West 445 512 36,000  Level FlightAware Transoceanic
Wed 12:39:50 PM 34.0167 -134.3500 246° West 455 524 36,000  Level Oakland Oceanic (ODAPS)
Wed 12:40:00 PM 34.0167 -134.3500 246° West 445 512 36,000  Level FlightAware Transoceanic
Wed 12:40:00 PM 34.0180 -134.4110 246° West 454 522 36,000  Level ACARS Aircraft Datalink
Wed 12:42:00 PM 33.9171 -134.6782 246° West  Level FlightAware Approximate
Wed 12:43:00 PM 33.8664 -134.8116 245° Southwest  Level FlightAware Approximate
Wed 12:44:00 PM 33.8156 -134.9447 245° Southwest  Level FlightAware Approximate
Wed 12:45:00 PM 33.7646 -135.0778 245° Southwest  Level FlightAware Approximate
Wed 12:46:00 PM 33.7035 -135.1886 246° West 455 524 36,000  Level FlightAware Transoceanic
Wed 12:47:00 PM 33.6508 -135.3277 245° Southwest 455 524 36,000  Level FlightAware Transoceanic
Wed 12:47:38 PM 33.6167 -135.4333 245° Southwest 459 528 36,000  Level Oakland Oceanic (ODAPS)
Wed 12:48:00 PM 33.5979 -135.4667 245° Southwest 455 524 36,000  Level FlightAware Transoceanic
Wed 12:49:00 PM 33.5449 -135.6055 245° Southwest 455 524 36,000  Level FlightAware Transoceanic
Wed 12:50:00 PM 33.4917 -135.7442 245° Southwest 455 524 36,000  Level FlightAware Transoceanic
Wed 12:51:00 PM 33.4383 -135.8827 245° Southwest 455 524 36,000  Level FlightAware Transoceanic
Wed 12:52:00 PM 33.3848 -136.0210 245° Southwest 455 524 36,000  Level FlightAware Transoceanic
Wed 12:53:00 PM 33.3312 -136.1591 245° Southwest 455 524 36,000  Level FlightAware Transoceanic
Wed 12:54:00 PM 33.2479 -136.3852 245° Southwest 459 528 36,000  Level FlightAware Transoceanic
Wed 12:55:00 PM 33.1947 -136.5205 245° Southwest 459 528 36,000  Level FlightAware Transoceanic
Wed 12:56:00 PM 33.1413 -136.6557 245° Southwest 459 528 36,000  Level FlightAware Transoceanic
Wed 12:57:00 PM 33.0877 -136.7907 245° Southwest 459 528 36,000  Level FlightAware Transoceanic
Wed 12:58:00 PM 33.0340 -136.9255 245° Southwest 459 528 36,000  Level FlightAware Transoceanic
Wed 12:59:00 PM 32.9801 -137.0602 244° Southwest 459 528 36,000  Level FlightAware Transoceanic
Wed 01:00:00 PM 32.9262 -137.1947 244° Southwest 459 528 36,000  Level FlightAware Transoceanic
Wed 01:01:00 PM 32.8720 -137.3290 244° Southwest 459 528 36,000  Level FlightAware Transoceanic
Wed 01:01:36 PM 32.8667 -137.3333 244° Southwest 461 531 36,000  Level Oakland Oceanic (ODAPS)
Wed 01:02:00 PM 32.8177 -137.4632 244° Southwest 459 528 36,000  Level FlightAware Transoceanic
Wed 01:03:00 PM 32.7633 -137.5972 244° Southwest 459 528 36,000  Level FlightAware Transoceanic
Wed 01:04:00 PM 32.7088 -137.7310 244° Southwest 459 528 36,000  Level FlightAware Transoceanic
Wed 01:05:00 PM 32.6540 -137.8647 244° Southwest 459 528 36,000  Level FlightAware Transoceanic
Wed 01:06:00 PM 32.5992 -137.9982 244° Southwest 459 528 36,000  Level FlightAware Transoceanic
Wed 01:07:00 PM 32.5399 -138.1350 244° Southwest 461 531 36,000  Level FlightAware Transoceanic
Wed 01:08:00 PM 32.4849 -138.2680 244° Southwest 461 531 36,000  Level FlightAware Transoceanic
Wed 01:09:00 PM 32.4299 -138.4009 244° Southwest 461 531 36,000  Level FlightAware Transoceanic
Wed 01:10:00 PM 32.3746 -138.5336 244° Southwest 461 531 36,000  Level FlightAware Transoceanic
Wed 01:11:00 PM 32.3192 -138.6662 244° Southwest 461 531 36,000  Level FlightAware Transoceanic
Wed 01:12:00 PM 32.2637 -138.7986 244° Southwest 461 531 36,000  Level FlightAware Transoceanic
Wed 01:13:00 PM 32.2081 -138.9308 244° Southwest 461 531 36,000  Level FlightAware Transoceanic
Wed 01:14:00 PM 32.1523 -139.0628 243° Southwest 461 531 36,000  Level FlightAware Transoceanic
Wed 01:15:00 PM 32.0964 -139.1947 243° Southwest 461 531 36,000  Level FlightAware Transoceanic
Wed 01:15:30 PM 32.0833 -139.2333 243° Southwest 466 536 36,000  Level Oakland Oceanic (ODAPS)
Wed 01:16:00 PM 32.0403 -139.3265 243° Southwest 461 531 36,000  Level FlightAware Transoceanic
Wed 01:17:00 PM 31.9841 -139.4581 243° Southwest 461 531 36,000  Level FlightAware Transoceanic
Wed 01:18:00 PM 31.9278 -139.5895 243° Southwest 461 531 36,000  Level FlightAware Transoceanic
Wed 01:19:00 PM 31.8713 -139.7207 243° Southwest 461 531 36,000  Level FlightAware Transoceanic
Wed 01:20:00 PM 31.8147 -139.8518 243° Southwest 461 531 36,000  Level FlightAware Transoceanic
Wed 01:21:00 PM 31.7273 -140.0581 243° Southwest 466 536 36,000  Level FlightAware Transoceanic
Wed 01:22:00 PM 31.6674 -140.1949 243° Southwest 466 536 36,000  Level FlightAware Transoceanic
Wed 01:23:00 PM 31.6074 -140.3316 243° Southwest 466 536 36,000  Level FlightAware Transoceanic
Wed 01:24:00 PM 31.5473 -140.4681 243° Southwest 466 536 36,000  Level FlightAware Transoceanic
Wed 01:25:00 PM 31.4870 -140.6044 243° Southwest 466 536 36,000  Level FlightAware Transoceanic
Wed 01:26:00 PM 31.4265 -140.7405 242° Southwest 466 536 36,000  Level FlightAware Transoceanic
Wed 01:27:00 PM 31.3659 -140.8765 242° Southwest 466 536 36,000  Level FlightAware Transoceanic
Wed 01:28:00 PM 31.3052 -141.0123 242° Southwest 466 536 36,000  Level FlightAware Transoceanic
Wed 01:29:00 PM 31.2443 -141.1479 242° Southwest 466 536 36,000  Level FlightAware Transoceanic
Wed 01:29:12 PM 31.2500 -141.1333 243° Southwest 467 537 36,000  Level Oakland Oceanic (ODAPS)
Wed 01:30:00 PM 31.1833 -141.2833 242° Southwest 466 536 36,000  Level FlightAware Transoceanic
Wed 01:30:00 PM 31.1810 -141.3300 242° Southwest 471 542 36,000  Level ACARS Aircraft Datalink
Wed 01:30:31 PM 31.1833 -141.2833 242° Southwest 473 544 36,000  Level Oakland Oceanic (ODAPS)
Wed 01:31:00 PM 31.1223 -141.4186 242° Southwest 466 536 36,000  Level FlightAware Transoceanic
Wed 01:33:00 PM 31.0092 -141.7047 242° Southwest  Level FlightAware Approximate
Wed 01:34:00 PM 30.9517 -141.8293 242° Southwest  Level FlightAware Approximate
Wed 01:35:00 PM 30.8766 -141.9580 242° Southwest 467 537 36,000  Level FlightAware Transoceanic
Wed 01:36:00 PM 30.8149 -142.0924 242° Southwest 473 544 36,000  Level FlightAware Transoceanic
Wed 01:37:00 PM 30.7530 -142.2267 242° Southwest 473 544 36,000  Level FlightAware Transoceanic
Wed 01:38:00 PM 30.6909 -142.3607 242° Southwest 473 544 36,000  Level FlightAware Transoceanic
Wed 01:39:00 PM 30.6288 -142.4946 242° Southwest 473 544 36,000  Level FlightAware Transoceanic
Wed 01:40:00 PM 30.5665 -142.6284 242° Southwest 473 544 36,000  Level FlightAware Transoceanic
Wed 01:41:00 PM 30.5040 -142.7619 241° Southwest 473 544 36,000  Level FlightAware Transoceanic
Wed 01:42:00 PM 30.4414 -142.8953 241° Southwest 473 544 36,000  Level FlightAware Transoceanic
Wed 01:43:00 PM 30.3787 -143.0285 241° Southwest 473 544 36,000  Level FlightAware Transoceanic
Wed 01:43:13 PM 30.4000 -143.0000 241° Southwest 475 547 36,000  Level Oakland Oceanic (ODAPS)
Wed 01:44:00 PM 30.3158 -143.1616 241° Southwest 473 544 36,000  Level FlightAware Transoceanic
Wed 01:45:00 PM 30.2529 -143.2944 241° Southwest 473 544 36,000  Level FlightAware Transoceanic
Wed 01:46:00 PM 30.1897 -143.4271 241° Southwest 473 544 36,000  Level FlightAware Transoceanic
Wed 01:47:00 PM 30.1265 -143.5597 241° Southwest 473 544 36,000  Level FlightAware Transoceanic
Wed 01:48:00 PM 30.0631 -143.6920 241° Southwest 473 544 36,000  Level FlightAware Transoceanic
Wed 01:49:00 PM 30.0177 -143.8004 241° Southwest 475 547 36,000  Level FlightAware Transoceanic
Wed 01:50:00 PM 29.9535 -143.9332 241° Southwest 475 547 36,000  Level FlightAware Transoceanic
Wed 01:51:00 PM 29.8891 -144.0659 241° Southwest 475 547 36,000  Level FlightAware Transoceanic
Wed 01:52:00 PM 29.8247 -144.1983 241° Southwest 475 547 36,000  Level FlightAware Transoceanic
Wed 01:53:00 PM 29.7601 -144.3306 241° Southwest 475 547 36,000  Level FlightAware Transoceanic
Wed 01:54:00 PM 29.6954 -144.4627 241° Southwest 475 547 36,000  Level FlightAware Transoceanic
Wed 01:55:00 PM 29.6305 -144.5947 240° Southwest 475 547 36,000  Level FlightAware Transoceanic
Wed 01:56:00 PM 29.5655 -144.7265 240° Southwest 475 547 36,000  Level FlightAware Transoceanic
Wed 01:57:00 PM 29.5004 -144.8581 240° Southwest 475 547 36,000  Level FlightAware Transoceanic
Wed 01:57:00 PM 29.5000 -144.8500 240° Southwest 476 548 36,000  Level Oakland Oceanic (ODAPS)
Wed 01:58:00 PM 29.4352 -144.9895 240° Southwest 475 547 36,000  Level FlightAware Transoceanic
Wed 01:59:00 PM 29.3698 -145.1208 240° Southwest 475 547 36,000  Level FlightAware Transoceanic
Wed 02:00:00 PM 29.3043 -145.2519 240° Southwest 475 547 36,000  Level FlightAware Transoceanic
Wed 02:01:00 PM 29.2387 -145.3828 240° Southwest 475 547 36,000  Level FlightAware Transoceanic
Wed 02:02:00 PM 29.1729 -145.5136 240° Southwest 475 547 36,000  Level FlightAware Transoceanic
Wed 02:03:00 PM 29.1068 -145.6381 240° Southwest 476 548 36,000  Level FlightAware Transoceanic
Wed 02:04:00 PM 29.0408 -145.7689 240° Southwest 476 548 36,000  Level FlightAware Transoceanic
Wed 02:05:00 PM 28.9746 -145.8995 240° Southwest 476 548 36,000  Level FlightAware Transoceanic
Wed 02:06:00 PM 28.9084 -146.0300 240° Southwest 476 548 36,000  Level FlightAware Transoceanic
Wed 02:07:00 PM 28.8420 -146.1602 240° Southwest 476 548 36,000  Level FlightAware Transoceanic
Wed 02:08:00 PM 28.7755 -146.2903 240° Southwest 476 548 36,000  Level FlightAware Transoceanic
Wed 02:09:00 PM 28.7089 -146.4203 240° Southwest 476 548 36,000  Level FlightAware Transoceanic
Wed 02:10:00 PM 28.6422 -146.5500 240° Southwest 476 548 36,000  Level FlightAware Transoceanic
Wed 02:10:57 PM 28.5833 -146.6667 239° Southwest 473 544 36,000  Level Oakland Oceanic (ODAPS)
Wed 02:11:00 PM 28.5753 -146.6796 240° Southwest 476 548 36,000  Level FlightAware Transoceanic
Wed 02:12:00 PM 28.5083 -146.8091 239° Southwest 476 548 36,000  Level FlightAware Transoceanic
Wed 02:13:00 PM 28.4412 -146.9383 239° Southwest 476 548 36,000  Level FlightAware Transoceanic
Wed 02:14:00 PM 28.3740 -147.0674 239° Southwest 476 548 36,000  Level FlightAware Transoceanic
Wed 02:15:00 PM 28.3066 -147.1964 239° Southwest 476 548 36,000  Level FlightAware Transoceanic
Wed 02:16:00 PM 28.2392 -147.3252 239° Southwest 476 548 36,000  Level FlightAware Transoceanic
Wed 02:17:00 PM 28.1748 -147.4487 239° Southwest 473 544 36,000  Level FlightAware Transoceanic
Wed 02:18:00 PM 28.1063 -147.5784 239° Southwest 473 544 36,000  Level FlightAware Transoceanic
Wed 02:19:00 PM 28.0376 -147.7080 239° Southwest 473 544 36,000  Level FlightAware Transoceanic
Wed 02:20:00 PM 27.9689 -147.8374 239° Southwest 473 544 36,000  Level FlightAware Transoceanic
Wed 02:21:00 PM 27.9000 -147.9667 239° Southwest 473 544 36,000  Level FlightAware Transoceanic
Wed 02:21:00 PM 27.8800 -148.0350 239° Southwest 476 548 36,000  Level ACARS Aircraft Datalink
Wed 02:21:11 PM 27.9000 -147.9667 239° Southwest 469 540 36,000  Level Oakland Oceanic (ODAPS)
Wed 02:24:00 PM 27.6891 -148.3870 239° Southwest  Level FlightAware Approximate
Wed 02:24:41 PM 27.6500 -148.4333 239° Southwest 467 537 36,000  Level Oakland Oceanic (ODAPS)
Wed 02:25:00 PM 27.6253 -148.5040 238° Southwest  Level FlightAware Approximate
Wed 02:26:00 PM 27.5614 -148.6210 238° Southwest  Level FlightAware Approximate
Wed 02:27:00 PM 27.4910 -148.7263 239° Southwest 469 540 36,000  Level FlightAware Transoceanic
Wed 02:28:00 PM 27.4224 -148.8524 238° Southwest 469 540 36,000  Level FlightAware Transoceanic
Wed 02:29:00 PM 27.3538 -148.9783 238° Southwest 469 540 36,000  Level FlightAware Transoceanic
Wed 02:30:00 PM 27.3050 -149.0682 238° Southwest 467 537 36,000  Level FlightAware Transoceanic
Wed 02:31:00 PM 27.2356 -149.1947 238° Southwest 467 537 36,000  Level FlightAware Transoceanic
Wed 02:32:00 PM 27.1662 -149.3210 238° Southwest 467 537 36,000  Level FlightAware Transoceanic
Wed 02:33:00 PM 27.0966 -149.4472 238° Southwest 467 537 36,000  Level FlightAware Transoceanic
Wed 02:34:00 PM 27.0269 -149.5732 238° Southwest 467 537 36,000  Level FlightAware Transoceanic
Wed 02:35:00 PM 26.9571 -149.6991 238° Southwest 467 537 36,000  Level FlightAware Transoceanic
Wed 02:36:00 PM 26.8872 -149.8248 238° Southwest 467 537 36,000  Level FlightAware Transoceanic
Wed 02:37:00 PM 26.8172 -149.9503 238° Southwest 467 537 36,000  Level FlightAware Transoceanic
Wed 02:38:00 PM 26.7470 -150.0757 238° Southwest 467 537 36,000  Level FlightAware Transoceanic
Wed 02:38:34 PM 26.6833 -150.1833 238° Southwest 464 534 36,000  Level Oakland Oceanic (ODAPS)
Wed 02:39:00 PM 26.6768 -150.2010 238° Southwest 467 537 36,000  Level FlightAware Transoceanic
Wed 02:40:00 PM 26.6064 -150.3260 238° Southwest 467 537 36,000  Level FlightAware Transoceanic
Wed 02:41:00 PM 26.5360 -150.4510 238° Southwest 467 537 36,000  Level FlightAware Transoceanic
Wed 02:42:00 PM 26.4654 -150.5758 238° Southwest 467 537 36,000  Level FlightAware Transoceanic
Wed 02:43:00 PM 26.3947 -150.7004 238° Southwest 467 537 36,000  Level FlightAware Transoceanic
Wed 02:44:00 PM 26.2710 -150.9128 238° Southwest 464 534 36,000  Level FlightAware Transoceanic
Wed 02:45:00 PM 26.2020 -151.0339 238° Southwest 464 534 36,000  Level FlightAware Transoceanic
Wed 02:46:00 PM 26.1328 -151.1548 237° Southwest 464 534 36,000  Level FlightAware Transoceanic
Wed 02:47:00 PM 26.0635 -151.2756 237° Southwest 464 534 36,000  Level FlightAware Transoceanic
Wed 02:48:00 PM 25.9941 -151.3963 237° Southwest 464 534 36,000  Level FlightAware Transoceanic
Wed 02:49:00 PM 25.9246 -151.5168 237° Southwest 464 534 36,000  Level FlightAware Transoceanic
Wed 02:50:00 PM 25.8551 -151.6371 237° Southwest 464 534 36,000  Level FlightAware Transoceanic
Wed 02:51:00 PM 25.7854 -151.7574 237° Southwest 464 534 36,000  Level FlightAware Transoceanic
Wed 02:52:00 PM 25.7156 -151.8775 237° Southwest 464 534 36,000  Level FlightAware Transoceanic
Wed 02:52:32 PM 25.7333 -151.8500 237° Southwest 458 527 36,000  Level Oakland Oceanic (ODAPS)
Wed 02:53:00 PM 25.6457 -151.9974 237° Southwest 464 534 36,000  Level FlightAware Transoceanic
Wed 02:54:00 PM 25.5758 -152.1172 237° Southwest 464 534 36,000  Level FlightAware Transoceanic
Wed 02:55:00 PM 25.5057 -152.2368 237° Southwest 464 534 36,000  Level FlightAware Transoceanic
Wed 02:56:00 PM 25.4355 -152.3564 237° Southwest 464 534 36,000  Level FlightAware Transoceanic
Wed 02:57:00 PM 25.3653 -152.4757 237° Southwest 464 534 36,000  Level FlightAware Transoceanic
Wed 02:58:00 PM 25.3278 -152.5415 237° Southwest 458 527 36,000  Level FlightAware Transoceanic
Wed 02:59:00 PM 25.2599 -152.6562 237° Southwest 458 527 36,000  Level FlightAware Transoceanic
Wed 03:00:00 PM 25.1919 -152.7709 237° Southwest 458 527 36,000  Level FlightAware Transoceanic
Wed 03:01:00 PM 25.1238 -152.8854 237° Southwest 458 527 36,000  Level FlightAware Transoceanic
Wed 03:02:00 PM 25.0556 -152.9998 237° Southwest 458 527 36,000  Level FlightAware Transoceanic
Wed 03:03:00 PM 24.9873 -153.1141 237° Southwest 458 527 36,000  Level FlightAware Transoceanic
Wed 03:04:00 PM 24.9190 -153.2283 237° Southwest 458 527 36,000  Level FlightAware Transoceanic
Wed 03:05:00 PM 24.8506 -153.3423 236° Southwest 458 527 36,000  Level FlightAware Transoceanic
Wed 03:06:00 PM 24.7820 -153.4562 236° Southwest 458 527 36,000  Level FlightAware Transoceanic
Wed 03:06:17 PM 24.7667 -153.4833 236° Southwest 454 522 36,000  Level Oakland Oceanic (ODAPS)
Wed 03:07:00 PM 24.7134 -153.5700 236° Southwest 458 527 36,000  Level FlightAware Transoceanic
Wed 03:08:00 PM 24.6447 -153.6836 236° Southwest 458 527 36,000  Level FlightAware Transoceanic
Wed 03:09:00 PM 24.5760 -153.7971 236° Southwest 458 527 36,000  Level FlightAware Transoceanic
Wed 03:10:00 PM 24.5071 -153.9106 236° Southwest 458 527 36,000  Level FlightAware Transoceanic
Wed 03:11:00 PM 24.4382 -154.0238 236° Southwest 458 527 36,000  Level FlightAware Transoceanic
Wed 03:12:00 PM 24.3669 -154.1408 236° Southwest 454 522 36,000  Level FlightAware Transoceanic
Wed 03:13:00 PM 24.3000 -154.2500 236° Southwest 454 522 36,000  Level FlightAware Transoceanic
Wed 03:13:00 PM 24.2960 -154.2930 236° Southwest 454 522 36,000  Level ACARS Aircraft Datalink
Wed 03:13:41 PM 24.2167 -154.3333 235° Southwest 450 518 36,000  Level Honolulu Center
Wed 03:14:40 PM 24.1500 -154.4333 234° Southwest 460 529 36,000  Level Honolulu Center
Wed 03:15:41 PM 24.0333 -154.5167 213° Southwest 460 529 36,000  Level Honolulu Center
Wed 03:16:00 PM 24.0632 -154.6071 236° Southwest  Level FlightAware Approximate
Wed 03:16:41 PM 23.9333 -154.5667 205° Southwest 450 518 36,000  Level Honolulu Center
Wed 03:17:00 PM 23.9940 -154.7168 235° Southwest  Level FlightAware Approximate
Wed 03:17:41 PM 23.8167 -154.6333 208° Southwest 450 518 36,000  Level Honolulu Center
Wed 03:18:00 PM 23.9247 -154.8263 235° Southwest  Level FlightAware Approximate
Wed 03:18:41 PM 23.7000 -154.7167 213° Southwest 450 518 36,000  Level Honolulu Center
Wed 03:19:41 PM 23.6000 -154.7833 211° Southwest 450 518 36,000  Level Honolulu Center
Wed 03:20:41 PM 23.4833 -154.8500 208° Southwest 450 518 36,000  Level Honolulu Center
Wed 03:21:41 PM 23.3833 -154.9167 211° Southwest 450 518 36,000  Level Honolulu Center
Wed 03:22:42 PM 23.2667 -154.9833 208° Southwest 450 518 36,000  Level Honolulu Center
Wed 03:23:42 PM 23.1667 -155.0500 212° Southwest 450 518 36,000  Level Honolulu Center
Wed 03:24:42 PM 23.0500 -155.1167 208° Southwest 460 529 36,000  Level Honolulu Center
Wed 03:25:42 PM 22.9333 -155.1833 208° Southwest 450 518 36,000  Level Honolulu Center
Wed 03:26:42 PM 22.8333 -155.2500 212° Southwest 460 529 36,000  Level Honolulu Center
Wed 03:27:42 PM 22.7167 -155.3167 208° Southwest 460 529 36,000  Level Honolulu Center
Wed 03:28:42 PM 22.6000 -155.3833 208° Southwest 450 518 36,000  Level Honolulu Center
Wed 03:29:42 PM 22.5000 -155.4500 212° Southwest 450 518 36,000 -600 Level Honolulu Center
Wed 03:30:42 PM 22.3833 -155.5167 208° Southwest 460 529 34,800 -2,083 Descending Honolulu Center
Wed 03:31:43 PM 22.2667 -155.5833 208° Southwest 460 529 31,800 -2,777 Descending Honolulu Center
Wed 03:32:43 PM 22.1500 -155.6667 213° Southwest 470 541 29,200 -2,450 Descending Honolulu Center
Wed 03:33:43 PM 22.0500 -155.7333 212° Southwest 450 518 26,900 -2,250 Descending Honolulu Center
Wed 03:34:43 PM 21.9333 -155.7833 202° Southwest 440 506 24,700 -2,250 Descending Honolulu Center
Wed 03:35:43 PM 21.8333 -155.8500 212° Southwest 420 483 22,400 -2,200 Descending Honolulu Center
Wed 03:36:43 PM 21.7333 -155.9167 212° Southwest 410 472 20,300 -2,200 Descending Honolulu Center
Wed 03:37:43 PM 21.6333 -155.9667 205° Southwest 390 449 18,000 -2,300 Descending Honolulu Center
Wed 03:38:43 PM 21.5333 -156.0333 212° Southwest 390 449 15,700 -2,150 Descending Honolulu Center
Wed 03:39:43 PM 21.4500 -156.0833 209° Southwest 380 437 13,700 -2,033 Descending Honolulu Center
Wed 03:40:44 PM 21.3500 -156.1333 205° Southwest 370 426 11,600 -1,785 Descending Honolulu Center
Wed 03:41:44 PM 21.2667 -156.1833 209° Southwest 350 403 10,100 -900 Descending Honolulu Center
Wed 03:42:44 PM 21.2000 -156.2333 215° Southwest 300 345 9,800 -750 Descending Honolulu Center
Wed 03:43:44 PM 21.1167 -156.2667 200° South 280 322 8,600 -1,100 Descending Honolulu Center
Wed 03:44:44 PM 21.0500 -156.3000 205° Southwest 270 311 7,600 -1,000 Descending Honolulu Center
Wed 03:45:44 PM 20.9833 -156.3333 205° Southwest 260 299 6,600 -1,000 Descending Honolulu Center
Wed 03:46:44 PM 20.9333 -156.3667 212° Southwest 250 288 5,600 -900 Descending Honolulu Center
Wed 03:47:44 PM 20.8667 -156.4000 205° Southwest 220 253 4,800 -893 Descending Honolulu Center
Wed 03:48:45 PM 20.8167 -156.4167 197° South 200 230 3,800 -893 Descending Honolulu Center
Wed 03:49:45 PM 20.7667 -156.4333 197° South 200 230 3,000 -800 Descending Honolulu Center

Login

Don't have an account? Register now (free) for customized features, flight alerts, and more!